Topinabee, Michigan
Current Conditions -  °F | °C
As of 8:54 AM on Thursday 18 Dec 2014 (Local Time) from KPLN Reporting Station
Clear Clear  
Wind Chill:   Ceiling: Unl
Heat Index: 15°   Visibility: 10mi
Dew Point: 10°   Wind: 8mph
Humidity: 80%   Direction: 20°NNE
Pressure: 30.23"   Gusts: NA
Location:  45.48°N, 84.6°W
Report Text: KPLN 181354Z AUTO 02007KT 10SM CLR M09/M12 A3023 RMK AO2 SLP251 T10941122
Loading
Personal Weather Stations






























Interactive Weather Map New forecast layout! Learn more

10-Day Weather Forecast

Advertisements
Track Severe Weather on mobile